Time;durP1;ratioP1;P1;durP2;ratioP2;P2;SDS_P1;SDS_P2;PMS_P1;PMS_P2;Temp;Humidity;BMP_temperature;BMP_pressure;BME280_temperature;BME280_humidity;BME280_pressure;Samples;Min_cycle;Max_cycle;Signal;HPM_P1;HPM_P2
2022/03/06 00:01:42;;;;;;;20.90;12.15;;;;;;;1.71;100.00;94667.19;5109769;27;20562;-49
2022/03/06 00:04:09;;;;;;;25.92;11.13;;;;;;;1.66;100.00;94668.72;5111172;27;20051;-47
2022/03/06 00:06:37;;;;;;;20.60;11.13;;;;;;;1.62;100.00;94673.41;5111200;27;20084;-46
2022/03/06 00:09:04;;;;;;;23.25;10.75;;;;;;;1.63;100.00;94664.72;5111280;27;20556;-47
2022/03/06 00:11:30;;;;;;;23.80;11.63;;;;;;;1.64;100.00;94666.31;5112070;27;20067;-47
2022/03/06 00:13:57;;;;;;;19.83;10.50;;;;;;;1.59;100.00;94663.50;5112135;27;20043;-46
2022/03/06 00:16:24;;;;;;;22.02;10.20;;;;;;;1.60;100.00;94665.06;5111818;27;20078;-46
2022/03/06 00:18:51;;;;;;;22.23;10.15;;;;;;;1.54;100.00;94660.66;5114396;27;20043;-47
2022/03/06 00:21:18;;;;;;;18.35;10.00;;;;;;;1.49;100.00;94662.97;5111859;27;20047;-51
2022/03/06 00:23:45;;;;;;;15.63;9.15;;;;;;;1.47;100.00;94659.78;5112423;27;20051;-46
2022/03/06 00:26:12;;;;;;;15.30;8.85;;;;;;;1.43;100.00;94653.41;5113365;27;20039;-48
2022/03/06 00:28:39;;;;;;;18.65;9.60;;;;;;;1.45;100.00;94656.59;5113152;27;20046;-47
2022/03/06 00:31:06;;;;;;;19.88;10.23;;;;;;;1.45;100.00;94657.38;5111281;27;20466;-48
2022/03/06 00:33:34;;;;;;;17.23;10.32;;;;;;;1.44;100.00;94650.69;5112354;27;20050;-47
2022/03/06 00:36:01;;;;;;;19.23;8.85;;;;;;;1.46;100.00;94645.34;5112697;27;20092;-49
2022/03/06 00:38:28;;;;;;;18.83;9.77;;;;;;;1.44;100.00;94639.59;5119115;27;20054;-46
2022/03/06 00:40:55;;;;;;;15.02;9.75;;;;;;;1.50;100.00;94644.03;5111001;27;20046;-47
2022/03/06 00:43:22;;;;;;;18.02;9.68;;;;;;;1.41;100.00;94637.41;5111609;27;20047;-47
2022/03/06 00:45:48;;;;;;;18.95;9.50;;;;;;;1.46;100.00;94651.28;5111862;27;20043;-47
2022/03/06 00:48:15;;;;;;;19.85;10.57;;;;;;;1.45;100.00;94647.13;5112480;27;20040;-48
2022/03/06 00:50:42;;;;;;;18.02;9.27;;;;;;;1.48;100.00;94641.63;5112683;27;20120;-48
2022/03/06 00:53:09;;;;;;;16.92;8.88;;;;;;;1.50;100.00;94638.91;5112759;27;20043;-46
2022/03/06 00:55:38;;;;;;;21.17;9.90;;;;;;;1.45;100.00;94633.50;5111890;27;20573;-49
2022/03/06 00:58:09;;;;;;;14.25;8.02;;;;;;;1.43;100.00;94632.88;5111137;27;20047;-50
2022/03/06 01:00:41;;;;;;;12.43;6.55;;;;;;;1.42;100.00;94623.59;5109413;27;20046;-47
2022/03/06 01:03:11;;;;;;;19.77;7.78;;;;;;;1.42;100.00;94626.16;5111710;27;20039;-47
2022/03/06 01:05:39;;;;;;;12.90;7.63;;;;;;;1.42;100.00;94621.00;5112250;27;20111;-46
2022/03/06 01:08:07;;;;;;;12.15;6.15;;;;;;;1.39;100.00;94611.09;5113716;27;20416;-46
2022/03/06 01:10:36;;;;;;;10.85;5.53;;;;;;;1.34;100.00;94598.81;5111440;27;20048;-47
2022/03/06 01:13:05;;;;;;;12.75;6.25;;;;;;;1.48;100.00;94620.31;5110844;27;20056;-47
2022/03/06 01:15:33;;;;;;;10.75;5.93;;;;;;;1.44;100.00;94614.75;5115050;27;20128;-46
2022/03/06 01:18:00;;;;;;;12.40;6.75;;;;;;;1.44;100.00;94619.88;5112719;27;20466;-46
2022/03/06 01:20:26;;;;;;;14.05;6.97;;;;;;;1.45;100.00;94615.53;5112032;27;20088;-46
2022/03/06 01:22:54;;;;;;;16.23;6.30;;;;;;;1.44;100.00;94607.03;5113243;27;20043;-48
2022/03/06 01:25:21;;;;;;;12.30;5.85;;;;;;;1.43;100.00;94615.72;5112215;27;20040;-47
2022/03/06 01:27:48;;;;;;;9.55;6.13;;;;;;;1.47;100.00;94622.06;5090318;28;20055;-46
2022/03/06 01:30:16;;;;;;;11.10;6.43;;;;;;;1.50;100.00;94618.38;5109891;27;20100;-47
2022/03/06 01:32:43;;;;;;;16.45;8.23;;;;;;;1.54;100.00;94619.59;5110843;27;20051;-46
2022/03/06 01:35:10;;;;;;;12.45;7.55;;;;;;;1.51;100.00;94620.75;5111021;27;20055;-48
2022/03/06 01:37:37;;;;;;;12.82;7.28;;;;;;;1.48;100.00;94604.91;5113155;27;20108;-48
2022/03/06 01:40:05;;;;;;;10.60;7.30;;;;;;;1.49;100.00;94611.63;5111435;27;20417;-47
2022/03/06 01:42:32;;;;;;;16.33;8.30;;;;;;;1.49;100.00;94611.63;5114064;27;20059;-49
2022/03/06 01:44:59;;;;;;;12.38;8.02;;;;;;;1.46;100.00;94606.84;5111687;27;20047;-46
2022/03/06 01:47:41;;;;;;;12.13;6.85;;;;;;;1.45;100.00;94605.25;5110537;27;20101;-47
2022/03/06 01:50:19;;;;;;;11.43;6.82;;;;;;;1.47;100.00;94605.88;5109779;27;20429;-47
2022/03/06 01:52:48;;;;;;;12.35;6.60;;;;;;;1.47;100.00;94603.31;5111956;27;20505;-47
2022/03/06 01:55:17;;;;;;;12.05;6.55;;;;;;;1.42;100.00;94600.47;5110866;27;20046;-47
2022/03/06 01:57:46;;;;;;;14.63;7.15;;;;;;;1.39;100.00;94590.56;5109993;27;20063;-46
2022/03/06 02:00:17;;;;;;;10.55;6.25;;;;;;;1.36;100.00;94601.22;5109464;27;20059;-49
2022/03/06 02:02:44;;;;;;;12.45;7.13;;;;;;;1.29;100.00;94590.88;5109704;27;20050;-46
2022/03/06 02:05:12;;;;;;;14.18;7.50;;;;;;;1.27;100.00;94583.34;5117350;27;20118;-49
2022/03/06 02:07:38;;;;;;;14.77;7.47;;;;;;;1.33;100.00;94602.34;5114080;27;20102;-47
2022/03/06 02:10:07;;;;;;;13.68;7.68;;;;;;;1.33;100.00;94597.22;5112046;27;20767;-48
2022/03/06 02:12:34;;;;;;;12.50;6.72;;;;;;;1.34;100.00;94588.56;5112774;27;20071;-46
2022/03/06 02:15:05;;;;;;;12.95;7.93;;;;;;;1.28;100.00;94590.06;5110570;27;20054;-46
2022/03/06 02:17:32;;;;;;;15.48;7.10;;;;;;;1.30;100.00;94583.00;5110387;27;20512;-46
2022/03/06 02:20:20;;;;;;;11.85;7.13;;;;;;;1.34;100.00;94584.22;5113803;27;20031;-47
2022/03/06 02:22:49;;;;;;;11.82;6.25;;;;;;;1.34;100.00;94589.34;5109758;27;20078;-46
2022/03/06 02:25:26;;;;;;;11.40;6.47;;;;;;;1.33;100.00;94597.22;5112850;27;20444;-49
2022/03/06 02:27:56;;;;;;;13.85;7.32;;;;;;;1.37;100.00;94592.53;5108580;27;20417;-48
2022/03/06 02:30:25;;;;;;;13.45;7.65;;;;;;;1.40;100.00;94587.03;5114881;27;20047;-48
2022/03/06 02:32:53;;;;;;;11.80;6.78;;;;;;;1.41;100.00;94589.44;5108780;27;20047;-46
2022/03/06 02:35:21;;;;;;;8.68;5.28;;;;;;;1.41;100.00;94586.88;5109393;27;20047;-47
2022/03/06 02:37:48;;;;;;;8.05;5.53;;;;;;;1.41;100.00;94588.66;5114777;27;20084;-48
2022/03/06 02:40:18;;;;;;;10.20;6.22;;;;;;;1.41;100.00;94588.66;5109590;27;20721;-49
2022/03/06 02:42:48;;;;;;;22.30;6.75;;;;;;;1.40;100.00;94581.91;5108747;27;20410;-48
2022/03/06 02:45:16;;;;;;;12.20;6.30;;;;;;;1.41;100.00;94583.50;5113234;27;20043;-46
2022/03/06 02:47:45;;;;;;;8.13;5.47;;;;;;;1.39;100.00;94582.88;5108726;27;20485;-47
2022/03/06 02:50:15;;;;;;;7.40;4.90;;;;;;;1.41;100.00;94583.50;5112473;27;20051;-47
2022/03/06 02:52:42;;;;;;;8.02;4.68;;;;;;;1.39;100.00;94585.44;5108049;27;20063;-48
2022/03/06 02:55:11;;;;;;;9.13;5.47;;;;;;;1.37;100.00;94583.06;5113833;27;20043;-46
2022/03/06 02:57:38;;;;;;;8.60;5.50;;;;;;;1.41;100.00;94584.28;5108772;27;20512;-46
2022/03/06 03:00:08;;;;;;;9.32;4.90;;;;;;;1.44;100.00;94583.13;5108109;27;20074;-48
2022/03/06 03:02:35;;;;;;;8.63;5.20;;;;;;;1.44;100.00;94588.25;5107063;27;20499;-46
2022/03/06 03:05:06;;;;;;;7.90;4.57;;;;;;;1.34;100.00;94591.91;5114817;27;20043;-47
2022/03/06 03:07:33;;;;;;;9.60;4.40;;;;;;;1.39;100.00;94585.44;5108906;27;20451;-48
2022/03/06 03:10:00;;;;;;;8.00;4.70;;;;;;;1.43;100.00;94589.25;5113135;27;20035;-46
2022/03/06 03:12:27;;;;;;;9.50;5.00;;;;;;;1.42;100.00;94598.69;5113453;27;20055;-47
2022/03/06 03:14:54;;;;;;;8.13;4.63;;;;;;;1.43;100.00;94602.09;5108172;27;20089;-48
2022/03/06 03:17:21;;;;;;;10.88;5.45;;;;;;;1.41;100.00;94598.91;5109051;27;20046;-47
2022/03/06 03:19:47;;;;;;;11.35;5.93;;;;;;;1.40;100.00;94592.16;5113241;27;20097;-48
2022/03/06 03:22:14;;;;;;;10.52;5.43;;;;;;;1.49;100.00;94591.09;5109589;27;20035;-46
2022/03/06 03:24:41;;;;;;;10.27;5.53;;;;;;;1.51;100.00;94600.22;5107040;27;20489;-46
2022/03/06 03:27:08;;;;;;;8.73;4.90;;;;;;;1.51;100.00;94604.53;5107985;27;20035;-47
2022/03/06 03:29:34;;;;;;;9.30;5.32;;;;;;;1.48;100.00;94610.03;5108825;27;20039;-47
2022/03/06 03:32:01;;;;;;;9.93;5.03;;;;;;;1.49;100.00;94606.50;5109049;27;20081;-47
2022/03/06 03:34:28;;;;;;;8.50;4.88;;;;;;;1.48;100.00;94599.78;5109288;27;20513;-46
2022/03/06 03:36:55;;;;;;;10.45;5.85;;;;;;;1.52;100.00;94611.28;5109968;27;20036;-47
2022/03/06 03:39:22;;;;;;;8.63;4.45;;;;;;;1.49;100.00;94611.63;5111071;28;20043;-47
2022/03/06 03:41:49;;;;;;;10.80;4.60;;;;;;;1.36;100.00;94590.94;5111785;28;20050;-48
2022/03/06 03:44:15;;;;;;;11.65;5.82;;;;;;;1.47;100.00;94616.94;5108510;28;20093;-47
2022/03/06 03:46:42;;;;;;;9.90;5.00;;;;;;;1.45;100.00;94610.41;5108496;28;20663;-49
2022/03/06 03:49:11;;;;;;;7.63;5.13;;;;;;;1.34;100.00;94615.00;5107618;28;20050;-47
2022/03/06 03:51:38;;;;;;;9.30;4.95;;;;;;;1.37;100.00;94615.63;5114405;28;20044;-47
2022/03/06 03:54:05;;;;;;;7.55;4.18;;;;;;;1.32;100.00;94609.25;5107998;28;20417;-46
2022/03/06 03:56:31;;;;;;;5.45;3.97;;;;;;;1.37;100.00;94613.06;5109940;28;20487;-46
2022/03/06 03:58:58;;;;;;;7.03;4.18;;;;;;;1.24;100.00;94604.25;5107978;28;20421;-46
2022/03/06 04:01:25;;;;;;;7.97;4.57;;;;;;;1.27;100.00;94614.13;5105288;28;20047;-48
2022/03/06 04:03:52;;;;;;;9.00;5.00;;;;;;;1.25;100.00;94616.09;5111166;28;20055;-47
2022/03/06 04:06:19;;;;;;;8.20;4.80;;;;;;;1.25;100.00;94605.81;5106472;28;20046;-47
2022/03/06 04:08:45;;;;;;;9.68;5.28;;;;;;;1.19;100.00;94616.81;5108197;28;20043;-46
2022/03/06 04:11:12;;;;;;;11.50;5.63;;;;;;;1.21;100.00;94612.28;5110144;28;20122;-47
2022/03/06 04:13:39;;;;;;;7.80;4.20;;;;;;;1.25;100.00;94615.28;5107010;28;20513;-47
2022/03/06 04:16:07;;;;;;;11.85;5.60;;;;;;;1.21;100.00;94622.53;5107426;28;20051;-47
2022/03/06 04:18:34;;;;;;;9.05;4.80;;;;;;;1.19;100.00;94616.81;5115908;28;20520;-50
2022/03/06 04:21:01;;;;;;;8.77;4.88;;;;;;;1.23;100.00;94618.03;5114532;28;20485;-46
2022/03/06 04:23:27;;;;;;;11.35;5.38;;;;;;;1.13;100.00;94613.19;5086513;28;20079;-48
2022/03/06 04:25:54;;;;;;;8.57;4.82;;;;;;;1.18;100.00;94619.53;5109541;28;20074;-46
2022/03/06 04:28:21;;;;;;;7.13;4.65;;;;;;;1.13;100.00;94612.38;5109907;28;20051;-48
2022/03/06 04:30:48;;;;;;;8.32;4.45;;;;;;;1.06;100.00;94604.59;5106303;28;20039;-47
2022/03/06 04:33:14;;;;;;;7.95;4.10;;;;;;;1.12;100.00;94610.78;5110041;28;20459;-47
2022/03/06 04:35:41;;;;;;;8.40;4.70;;;;;;;1.11;100.00;94614.31;5107447;27;20054;-50
2022/03/06 04:38:08;;;;;;;6.63;4.63;;;;;;;1.07;100.00;94624.13;5113295;27;20054;-46
2022/03/06 04:40:35;;;;;;;10.68;5.65;;;;;;;1.03;100.00;94617.78;5114409;27;20043;-47
2022/03/06 04:43:01;;;;;;;9.50;4.53;;;;;;;1.07;100.00;94629.25;5110202;27;20108;-48
2022/03/06 04:45:29;;;;;;;5.93;3.90;;;;;;;1.07;100.00;94628.47;5112070;27;20550;-49
2022/03/06 04:47:55;;;;;;;7.03;4.53;;;;;;;1.00;100.00;94627.59;5113883;27;20027;-46
2022/03/06 04:50:22;;;;;;;9.35;5.22;;;;;;;1.02;100.00;94618.72;5109525;27;20049;-50
2022/03/06 04:52:52;;;;;;;7.75;4.93;;;;;;;1.02;100.00;94630.78;5109656;27;20055;-47
2022/03/06 04:55:19;;;;;;;9.00;4.82;;;;;;;1.01;100.00;94626.59;5109735;27;20071;-47
2022/03/06 04:57:46;;;;;;;10.63;4.53;;;;;;;1.00;100.00;94632.72;5109946;27;20077;-47
2022/03/06 05:00:15;;;;;;;9.40;5.20;;;;;;;1.05;100.00;94635.56;5109924;27;20040;-47
2022/03/06 05:02:42;;;;;;;6.95;4.13;;;;;;;1.02;100.00;94625.63;5107761;27;20059;-46
2022/03/06 05:05:10;;;;;;;6.50;4.03;;;;;;;0.94;100.00;94626.53;5110886;27;20477;-47
2022/03/06 05:07:37;;;;;;;6.53;3.65;;;;;;;0.95;100.00;94626.34;5109071;27;20040;-47
2022/03/06 05:10:12;;;;;;;6.97;3.42;;;;;;;0.94;100.00;94635.00;5115715;27;20482;-46
2022/03/06 05:12:41;;;;;;;8.13;4.75;;;;;;;0.94;100.00;94632.44;5109919;27;20054;-46
2022/03/06 05:15:11;;;;;;;7.20;3.80;;;;;;;0.97;100.00;94627.94;5110305;27;20043;-47
2022/03/06 05:17:39;;;;;;;8.40;4.68;;;;;;;0.84;100.00;94618.28;5109324;27;20039;-47
2022/03/06 05:20:09;;;;;;;7.13;3.85;;;;;;;0.90;100.00;94631.22;5109201;27;20508;-46
2022/03/06 05:22:35;;;;;;;11.48;4.60;;;;;;;0.92;100.00;94633.59;5108343;27;20043;-46
2022/03/06 05:25:03;;;;;;;8.95;4.50;;;;;;;0.92;100.00;94636.97;5108386;27;20416;-48
2022/03/06 05:27:30;;;;;;;10.38;5.50;;;;;;;0.95;100.00;94636.63;5089241;27;20047;-47
2022/03/06 05:29:56;;;;;;;9.48;5.60;;;;;;;0.95;100.00;94636.63;5110191;27;20781;-49
2022/03/06 05:32:23;;;;;;;10.88;6.30;;;;;;;0.93;100.00;94643.66;5112923;27;20071;-48
2022/03/06 05:34:50;;;;;;;8.48;5.18;;;;;;;0.96;100.00;94639.97;5109716;27;20096;-47
2022/03/06 05:37:17;;;;;;;11.45;5.57;;;;;;;0.93;100.00;94633.41;5110786;27;20047;-48
2022/03/06 05:39:44;;;;;;;10.65;5.57;;;;;;;0.98;100.00;94644.94;5111897;27;20447;-51
2022/03/06 05:42:11;;;;;;;10.00;5.70;;;;;;;1.01;100.00;94644.56;5108670;27;20052;-46
2022/03/06 05:44:37;;;;;;;7.95;5.53;;;;;;;0.99;100.00;94641.38;5109140;27;20151;-46
2022/03/06 05:47:04;;;;;;;9.68;4.72;;;;;;;1.02;100.00;94641.03;5108495;27;20040;-47
2022/03/06 05:49:31;;;;;;;10.48;5.25;;;;;;;1.02;100.00;94630.78;5108483;27;20055;-49
2022/03/06 05:51:58;;;;;;;7.72;4.65;;;;;;;1.02;100.00;94635.91;5109237;27;20050;-46
2022/03/06 05:54:25;;;;;;;7.03;4.00;;;;;;;1.04;100.00;94639.09;5108799;27;20039;-48
2022/03/06 05:56:51;;;;;;;7.40;4.63;;;;;;;1.07;100.00;94638.72;5109206;27;20046;-47
2022/03/06 05:59:18;;;;;;;8.88;4.82;;;;;;;1.02;100.00;94620.50;5109334;27;20042;-47
2022/03/06 06:01:45;;;;;;;9.38;4.15;;;;;;;1.18;100.00;94645.97;5106154;27;20043;-49
2022/03/06 06:04:15;;;;;;;7.93;4.82;;;;;;;1.21;100.00;94645.63;5107862;27;20047;-46
2022/03/06 06:06:41;;;;;;;9.73;5.22;;;;;;;1.18;100.00;94651.13;5109508;27;20047;-49
2022/03/06 06:09:08;;;;;;;8.07;4.10;;;;;;;1.23;100.00;94643.69;5108274;27;20054;-47
2022/03/06 06:11:35;;;;;;;7.15;4.18;;;;;;;1.20;100.00;94649.16;5109079;27;20043;-47
2022/03/06 06:14:03;;;;;;;7.78;4.68;;;;;;;1.23;100.00;94648.81;5112932;27;20771;-47
2022/03/06 06:16:31;;;;;;;9.27;4.80;;;;;;;1.21;100.00;94650.78;5108863;27;20051;-49
2022/03/06 06:18:58;;;;;;;7.90;3.67;;;;;;;1.25;100.00;94657.13;5109228;27;20055;-48
2022/03/06 06:21:25;;;;;;;8.85;4.82;;;;;;;1.26;100.00;94653.59;5109541;27;20493;-46
2022/03/06 06:23:52;;;;;;;9.80;3.95;;;;;;;1.21;100.00;94650.78;5109354;27;20047;-49
2022/03/06 06:26:18;;;;;;;8.13;4.88;;;;;;;1.22;100.00;94654.91;5111086;27;20399;-48
2022/03/06 06:28:48;;;;;;;7.93;4.75;;;;;;;1.22;100.00;94651.56;5107216;27;20113;-46
2022/03/06 06:31:14;;;;;;;9.35;4.82;;;;;;;1.24;100.00;94650.44;5108148;27;20044;-47
2022/03/06 06:33:41;;;;;;;9.63;5.60;;;;;;;1.25;100.00;94657.13;5108464;27;20051;-46
2022/03/06 06:36:08;;;;;;;8.40;4.97;;;;;;;1.28;100.00;94656.78;5107926;27;20044;-46
2022/03/06 06:38:35;;;;;;;8.98;5.68;;;;;;;1.27;100.00;94660.31;5110250;27;20044;-50
2022/03/06 06:41:01;;;;;;;8.93;5.43;;;;;;;1.32;100.00;94658.00;5108245;27;20428;-50
2022/03/06 06:43:29;;;;;;;8.07;4.72;;;;;;;1.34;100.00;94653.50;5109796;27;20063;-49
2022/03/06 06:45:56;;;;;;;9.55;5.57;;;;;;;1.26;100.00;94648.47;5115028;27;20453;-48
2022/03/06 06:48:23;;;;;;;23.77;11.68;;;;;;;1.32;100.00;94662.34;5109691;27;20890;-48
2022/03/06 06:50:50;;;;;;;15.60;8.63;;;;;;;1.39;100.00;94665.00;5108857;27;20047;-49
2022/03/06 06:53:17;;;;;;;16.30;11.40;;;;;;;1.42;100.00;94667.22;5110718;27;21539;-47
2022/03/06 06:55:44;;;;;;;13.32;8.18;;;;;;;1.34;100.00;94661.19;5108755;27;20477;-49
2022/03/06 06:58:11;;;;;;;11.52;7.50;;;;;;;1.38;100.00;94663.41;5115718;27;20031;-49
2022/03/06 07:00:38;;;;;;;12.63;6.75;;;;;;;1.37;100.00;94664.38;5108884;27;20061;-46
2022/03/06 07:03:05;;;;;;;8.85;5.85;;;;;;;1.33;100.00;94658.81;5109011;27;20035;-47
2022/03/06 07:05:32;;;;;;;9.23;5.55;;;;;;;1.30;100.00;94659.97;5114302;27;20095;-46
2022/03/06 07:07:59;;;;;;;6.45;3.80;;;;;;;1.27;100.00;94659.53;5109609;27;20039;-46
2022/03/06 07:10:26;;;;;;;8.18;4.63;;;;;;;1.20;100.00;94662.00;5108497;27;20622;-46
2022/03/06 07:12:55;;;;;;;7.18;3.88;;;;;;;1.18;100.00;94671.63;5107195;27;20066;-48
2022/03/06 07:15:28;;;;;;;9.45;5.00;;;;;;;1.25;100.00;94672.53;5110973;27;20579;-48
2022/03/06 07:17:58;;;;;;;10.65;5.65;;;;;;;1.33;100.00;94664.75;5113206;27;20470;-48
2022/03/06 07:20:26;;;;;;;9.02;5.38;;;;;;;1.26;100.00;94658.72;5110225;27;20050;-51
2022/03/06 07:22:54;;;;;;;13.80;7.70;;;;;;;1.34;100.00;94665.53;5109979;27;20063;-46
2022/03/06 07:25:21;;;;;;;11.38;5.85;;;;;;;1.27;100.00;94644.91;5109716;27;20035;-46
2022/03/06 07:27:49;;;;;;;12.43;7.75;;;;;;;1.31;100.00;94659.00;5109467;27;20055;-46
2022/03/06 07:30:16;;;;;;;8.82;5.25;;;;;;;1.30;100.00;94654.84;5107910;27;20111;-46
2022/03/06 07:32:45;;;;;;;11.63;6.20;;;;;;;1.17;100.00;94629.03;5107139;27;20085;-50
2022/03/06 07:35:13;;;;;;;13.73;8.73;;;;;;;1.34;100.00;94658.63;5109468;27;20044;-48
2022/03/06 07:37:40;;;;;;;13.95;8.30;;;;;;;1.36;100.00;94667.94;5108224;27;20092;-47
2022/03/06 07:40:09;;;;;;;10.00;5.82;;;;;;;1.38;100.00;94661.63;5112458;27;20048;-45
2022/03/06 07:42:38;;;;;;;9.20;5.32;;;;;;;1.39;100.00;94662.44;5109552;28;20046;-47
2022/03/06 07:45:06;;;;;;;7.65;4.93;;;;;;;1.40;100.00;94669.16;5103093;28;20104;-45
2022/03/06 07:47:33;;;;;;;7.13;4.75;;;;;;;1.41;100.00;94665.63;5106051;28;20055;-47
2022/03/06 07:50:00;;;;;;;8.43;4.32;;;;;;;1.42;100.00;94667.22;5106268;28;20047;-47
2022/03/06 07:52:27;;;;;;;9.77;5.30;;;;;;;1.43;100.00;94673.94;5106142;28;20054;-48
2022/03/06 07:54:53;;;;;;;7.43;4.43;;;;;;;1.50;100.00;94670.47;5104199;28;20056;-50
2022/03/06 07:57:20;;;;;;;7.07;4.70;;;;;;;1.52;100.00;94675.44;5105123;27;20066;-47
2022/03/06 07:59:47;;;;;;;7.28;4.57;;;;;;;1.45;100.00;94672.00;5106951;28;20413;-48
2022/03/06 08:02:14;;;;;;;7.55;4.38;;;;;;;1.41;100.00;94675.91;5101447;28;20544;-48
2022/03/06 08:04:41;;;;;;;6.45;3.85;;;;;;;1.42;100.00;94674.91;5107411;28;20592;-46
2022/03/06 08:07:08;;;;;;;9.52;5.78;;;;;;;1.37;100.00;94679.78;5107978;27;20039;-46
2022/03/06 08:09:34;;;;;;;11.70;4.38;;;;;;;1.32;100.00;94675.97;5108143;28;20040;-47
2022/03/06 08:12:01;;;;;;;9.68;5.00;;;;;;;1.34;100.00;94681.72;5109105;27;20433;-45
2022/03/06 08:14:28;;;;;;;7.63;4.70;;;;;;;1.39;100.00;94680.38;5110815;27;20039;-47
2022/03/06 08:16:59;;;;;;;9.43;4.13;;;;;;;1.41;100.00;94686.16;5109219;27;20575;-46
2022/03/06 08:19:26;;;;;;;5.90;3.50;;;;;;;1.43;100.00;94681.66;5109343;27;20032;-47
2022/03/06 08:21:53;;;;;;;8.63;4.40;;;;;;;1.41;100.00;94681.81;5112716;27;20054;-46
2022/03/06 08:24:21;;;;;;;8.25;5.40;;;;;;;1.49;100.00;94683.50;5112627;27;20050;-47
2022/03/06 08:26:47;;;;;;;7.13;4.47;;;;;;;1.50;100.00;94679.97;5116374;27;22043;-47
2022/03/06 08:29:14;;;;;;;8.27;4.45;;;;;;;1.51;100.00;94686.66;5114096;27;20065;-48
2022/03/06 08:31:41;;;;;;;8.48;4.78;;;;;;;1.52;100.00;94683.16;5114398;27;20067;-48
2022/03/06 08:34:08;;;;;;;10.20;4.72;;;;;;;1.56;100.00;94689.50;5110930;27;20083;-49
2022/03/06 08:36:35;;;;;;;8.57;5.55;;;;;;;1.56;100.00;94678.44;5115995;27;20039;-48
2022/03/06 08:39:03;;;;;;;7.65;5.07;;;;;;;1.57;100.00;94680.84;5118559;27;20569;-47
2022/03/06 08:41:29;;;;;;;7.68;4.45;;;;;;;1.62;100.00;94678.53;5113485;27;20115;-47
2022/03/06 08:43:56;;;;;;;7.57;5.10;;;;;;;1.59;100.00;94678.09;5114170;27;20051;-46
2022/03/06 08:46:23;;;;;;;8.63;5.60;;;;;;;1.57;100.00;94674.88;5114656;27;20043;-47
2022/03/06 08:48:50;;;;;;;8.45;5.55;;;;;;;1.50;100.00;94669.69;5112424;27;20423;-47
2022/03/06 08:51:17;;;;;;;7.75;5.18;;;;;;;1.50;100.00;94669.69;5112229;27;20039;-46
2022/03/06 08:53:44;;;;;;;11.02;6.72;;;;;;;1.50;100.00;94672.25;5111211;27;20053;-45
2022/03/06 08:56:11;;;;;;;9.95;5.35;;;;;;;1.47;100.00;94667.47;5111655;27;20043;-46
2022/03/06 08:58:37;;;;;;;5.75;4.25;;;;;;;1.38;100.00;94655.72;5114503;27;20573;-47
2022/03/06 09:01:04;;;;;;;8.57;5.45;;;;;;;1.46;100.00;94663.31;5110602;27;20088;-47
2022/03/06 09:03:31;;;;;;;6.65;4.35;;;;;;;1.42;100.00;94662.06;5108971;27;20104;-49
2022/03/06 09:05:58;;;;;;;13.30;4.97;;;;;;;1.45;100.00;94651.47;5105879;27;20078;-48
2022/03/06 09:08:25;;;;;;;9.30;5.10;;;;;;;1.50;100.00;94669.69;5111331;27;20039;-49
2022/03/06 09:10:52;;;;;;;8.15;4.93;;;;;;;1.62;100.00;94667.47;5112260;27;20100;-46
2022/03/06 09:13:19;;;;;;;6.57;4.38;;;;;;;1.66;100.00;94674.63;5112139;27;20048;-48
2022/03/06 09:15:46;;;;;;;7.90;4.82;;;;;;;1.65;100.00;94673.03;5110024;27;20554;-47
2022/03/06 09:18:13;;;;;;;8.48;5.30;;;;;;;1.65;100.00;94673.03;5111316;27;20068;-46
2022/03/06 09:20:39;;;;;;;7.82;5.20;;;;;;;1.71;100.00;94677.47;5113705;27;20442;-45
2022/03/06 09:23:08;;;;;;;7.03;4.40;;;;;;;1.84;100.00;94678.59;5111564;27;20039;-46
2022/03/06 09:25:35;;;;;;;9.40;4.57;;;;;;;2.03;100.00;94675.44;5111570;27;20050;-46
2022/03/06 09:28:03;;;;;;;5.43;3.50;;;;;;;2.23;100.00;94674.84;5110732;27;20047;-46
2022/03/06 09:30:30;;;;;;;7.22;4.10;;;;;;;2.41;100.00;94672.66;5111526;27;20080;-48
2022/03/06 09:32:58;;;;;;;4.68;3.15;;;;;;;2.64;100.00;94669.09;5107657;27;20046;-48
2022/03/06 09:35:25;;;;;;;6.60;3.67;;;;;;;2.77;100.00;94661.47;5112293;27;20054;-47
2022/03/06 09:37:52;;;;;;;4.43;2.95;;;;;;;2.98;100.00;94657.28;5104910;27;20612;-47
2022/03/06 09:40:19;;;;;;;5.05;2.90;;;;;;;2.91;100.00;94651.28;5106917;27;20054;-47
2022/03/06 09:42:46;;;;;;;5.95;3.58;;;;;;;3.00;100.00;94645.81;5111840;27;20065;-47
2022/03/06 09:45:14;;;;;;;5.55;2.90;;;;;;;3.18;100.00;94647.91;5105172;27;20119;-45
2022/03/06 09:47:44;;;;;;;5.03;2.75;;;;;;;3.00;100.00;94614.16;5105479;27;20130;-48
2022/03/06 09:50:12;;;;;;;5.07;3.05;;;;;;;3.04;100.00;94636.75;5110935;27;20467;-46
2022/03/06 09:52:39;;;;;;;5.15;2.58;;;;;;;3.02;100.00;94643.06;5108486;27;20047;-47
2022/03/06 09:55:07;;;;;;;7.55;4.35;;;;;;;2.84;100.00;94652.03;5111739;27;20679;-49
2022/03/06 09:57:34;;;;;;;7.45;4.57;;;;;;;2.81;100.00;94667.03;5108927;27;20062;-46
2022/03/06 10:00:01;;;;;;;6.43;4.00;;;;;;;2.75;100.00;94673.72;5108476;27;20378;-46
2022/03/06 10:02:30;;;;;;;6.93;3.35;;;;;;;2.68;100.00;94672.88;5107374;27;20054;-47
2022/03/06 10:04:57;;;;;;;7.10;3.85;;;;;;;2.70;100.00;94670.91;5107362;27;20119;-47
2022/03/06 10:07:24;;;;;;;8.38;4.72;;;;;;;2.73;100.00;94675.69;5106827;27;20417;-49
2022/03/06 10:09:54;;;;;;;4.30;2.53;;;;;;;2.59;100.00;94668.84;5108768;27;20728;-47
2022/03/06 10:12:27;;;;;;;4.03;2.50;;;;;;;2.45;100.00;94668.75;5113181;27;20420;-47
2022/03/06 10:15:00;;;;;;;3.17;2.33;;;;;;;2.34;100.00;94666.66;5111690;27;20134;-48
2022/03/06 10:17:29;;;;;;;2.45;1.42;;;;;;;2.22;100.00;94670.69;5111167;27;20070;-48
2022/03/06 10:19:56;;;;;;;4.28;2.42;;;;;;;2.16;100.00;94666.28;5108307;27;20055;-47
2022/03/06 10:22:34;;;;;;;2.75;1.67;;;;;;;2.07;100.00;94653.56;5108100;27;20054;-48
2022/03/06 10:25:06;;;;;;;2.72;1.45;;;;;;;2.03;100.00;94654.88;5109552;27;20049;-47
2022/03/06 10:27:57;;;;;;;4.28;2.38;;;;;;;2.03;100.00;94649.75;5109730;27;20446;-46
2022/03/06 10:30:37;;;;;;;2.85;1.52;;;;;;;2.01;100.00;94649.13;5105346;27;20039;-48
2022/03/06 10:33:18;;;;;;;3.17;2.13;;;;;;;1.96;100.00;94638.59;5107503;27;20067;-48
2022/03/06 10:35:48;;;;;;;2.58;1.80;;;;;;;2.02;100.00;94637.88;5105807;27;20481;-47
2022/03/06 10:38:31;;;;;;;4.45;2.75;;;;;;;2.18;100.00;94646.31;5106170;27;20513;-48
2022/03/06 10:41:17;;;;;;;3.85;2.63;;;;;;;2.31;100.00;94651.59;5110606;27;20048;-48
2022/03/06 10:43:43;;;;;;;4.32;3.17;;;;;;;2.35;100.00;94637.41;5105807;27;20051;-48
2022/03/06 10:46:15;;;;;;;6.68;3.97;;;;;;;2.40;100.00;94647.16;5108151;27;20554;-48
2022/03/06 10:48:52;;;;;;;5.60;2.78;;;;;;;2.44;100.00;94659.44;5106581;27;20051;-47
2022/03/06 10:51:20;;;;;;;6.40;3.55;;;;;;;2.41;100.00;94641.81;5105245;27;20051;-47
2022/03/06 10:53:54;;;;;;;7.32;3.22;;;;;;;2.34;100.00;94635.00;5106806;27;20047;-48
2022/03/06 10:56:21;;;;;;;;;;;;;;;2.32;100.00;94653.19;5106770;27;20050;-47
2022/03/06 10:58:48;;;;;;;3.38;1.92;;;;;;;2.27;100.00;94658.09;5109069;27;19926;-46
2022/03/06 11:01:31;;;;;;;4.47;1.90;;;;;;;2.22;100.00;94652.72;5088490;27;20061;-48
2022/03/06 11:04:00;;;;;;;5.22;2.08;;;;;;;2.13;100.00;94653.81;5105670;27;20105;-46
2022/03/06 11:06:28;;;;;;;5.43;2.65;;;;;;;2.03;100.00;94652.31;5108083;27;20095;-46
2022/03/06 11:08:56;;;;;;;4.28;2.05;;;;;;;2.00;100.00;94650.13;5107196;27;20043;-48
2022/03/06 11:11:23;;;;;;;3.40;1.83;;;;;;;1.98;100.00;94652.09;5109947;27;20149;-48
2022/03/06 11:13:53;;;;;;;5.10;2.40;;;;;;;1.91;100.00;94646.09;5103944;27;20098;-47
2022/03/06 11:16:20;;;;;;;4.28;2.20;;;;;;;1.77;100.00;94654.63;5105876;27;20108;-47
2022/03/06 11:18:47;;;;;;;4.68;2.20;;;;;;;1.60;100.00;94644.53;5107000;27;20443;-48
2022/03/06 11:21:14;;;;;;;2.92;2.28;;;;;;;1.44;100.00;94665.25;5107706;27;20492;-47
2022/03/06 11:23:47;;;;;;;3.38;2.03;;;;;;;1.41;100.00;94647.66;5107523;27;20043;-47
2022/03/06 11:26:16;;;;;;;4.03;2.83;;;;;;;1.27;100.00;94660.31;5107276;27;20048;-49
2022/03/06 11:28:43;;;;;;;3.53;2.17;;;;;;;1.23;100.00;94653.16;5106928;27;20036;-50
2022/03/06 11:31:10;;;;;;;6.22;3.80;;;;;;;1.15;100.00;94659.16;5110076;27;20745;-46
2022/03/06 11:33:55;;;;;;;5.80;3.60;;;;;;;1.05;100.00;94656.06;5106680;28;20039;-46